createdAt,value
2018-02-11T00:00:27.198Z,2.82
2018-02-11T00:01:27.913Z,2.81
2018-02-11T00:02:27.653Z,2.82
2018-02-11T00:03:28.110Z,2.85
2018-02-11T00:04:27.719Z,2.81
2018-02-11T00:05:27.788Z,2.84
2018-02-11T00:06:27.816Z,2.81
2018-02-11T00:07:27.895Z,2.84
2018-02-11T00:08:27.264Z,2.8
2018-02-11T00:09:27.691Z,2.8
2018-02-11T00:10:27.278Z,2.78
2018-02-11T00:11:27.887Z,2.79
2018-02-11T00:12:27.589Z,2.74
2018-02-11T00:13:27.542Z,2.74
2018-02-11T00:14:27.768Z,2.74
2018-02-11T00:15:27.738Z,2.71
2018-02-11T00:16:27.678Z,2.69
2018-02-11T00:17:27.666Z,2.7
2018-02-11T00:18:27.231Z,2.68
2018-02-11T00:19:27.868Z,2.65
2018-02-11T00:20:27.838Z,2.67
2018-02-11T00:21:27.879Z,2.64
2018-02-11T00:22:27.833Z,2.62
2018-02-11T00:23:27.382Z,2.61
2018-02-11T00:24:27.886Z,2.63
2018-02-11T00:25:27.981Z,2.61
2018-02-11T00:26:27.244Z,2.61
2018-02-11T00:27:28.288Z,2.59
2018-02-11T00:28:28.120Z,2.61
2018-02-11T00:29:27.955Z,2.61
2018-02-11T00:30:27.828Z,2.58
2018-02-11T00:31:27.983Z,2.58
2018-02-11T00:32:27.773Z,2.57
2018-02-11T00:33:27.979Z,2.56
2018-02-11T00:34:27.801Z,2.55
2018-02-11T00:35:27.952Z,2.55
2018-02-11T00:36:27.830Z,2.49
2018-02-11T00:37:27.689Z,2.49
2018-02-11T00:38:28.053Z,2.46
2018-02-11T00:39:27.560Z,2.48
2018-02-11T00:40:27.554Z,2.43
2018-02-11T00:41:27.078Z,2.45
2018-02-11T00:42:25.844Z,2.43
2018-02-11T00:43:27.114Z,2.4
2018-02-11T00:44:27.142Z,2.43
2018-02-11T00:45:25.810Z,2.38
2018-02-11T00:46:26.995Z,2.38
2018-02-11T00:47:27.179Z,2.38
2018-02-11T00:48:27.132Z,2.38
2018-02-11T00:49:27.192Z,2.38
2018-02-11T00:50:25.766Z,2.37
2018-02-11T00:51:27.060Z,2.37
2018-02-11T00:52:26.875Z,2.38
2018-02-11T00:53:25.789Z,2.38
2018-02-11T00:54:25.813Z,2.36
2018-02-11T00:55:26.951Z,2.38
2018-02-11T00:56:25.851Z,2.37
2018-02-11T00:57:27.625Z,2.37
2018-02-11T00:58:25.846Z,2.38
2018-02-11T00:59:27.135Z,2.39
2018-02-11T01:00:25.883Z,2.38
2018-02-11T01:01:27.242Z,2.39
2018-02-11T01:02:27.182Z,2.37
2018-02-11T01:03:25.778Z,2.38
2018-02-11T01:04:27.104Z,2.36
2018-02-11T01:05:27.095Z,2.37
2018-02-11T01:06:25.827Z,2.38
2018-02-11T01:07:27.123Z,2.38
2018-02-11T01:08:27.026Z,2.38
2018-02-11T01:09:27.240Z,2.37
2018-02-11T01:10:27.316Z,2.38
2018-02-11T01:11:27.239Z,2.37
2018-02-11T01:12:27.536Z,2.38
2018-02-11T01:13:27.018Z,2.38
2018-02-11T01:14:27.441Z,2.37
2018-02-11T01:15:27.037Z,2.33
2018-02-11T01:16:26.761Z,2.35
2018-02-11T01:17:26.802Z,2.32
2018-02-11T01:18:27.379Z,2.31
2018-02-11T01:19:27.035Z,2.32
2018-02-11T01:20:27.277Z,2.3
2018-02-11T01:21:26.762Z,2.27
2018-02-11T01:22:27.158Z,2.26
2018-02-11T01:23:27.354Z,2.26
2018-02-11T01:24:27.238Z,2.24
2018-02-11T01:25:27.185Z,2.25
2018-02-11T01:26:26.792Z,2.26
2018-02-11T01:27:26.850Z,2.2
2018-02-11T01:28:26.784Z,2.23
2018-02-11T01:29:27.149Z,2.23
2018-02-11T01:31:40.154Z,2.19
2018-02-11T01:32:27.315Z,2.2
2018-02-11T01:33:27.374Z,2.18
2018-02-11T01:34:27.164Z,2.14
2018-02-11T01:35:26.869Z,2.17
2018-02-11T01:36:27.117Z,2.14
2018-02-11T01:37:27.095Z,2.14
2018-02-11T01:38:26.762Z,2.14
2018-02-11T01:39:26.993Z,2.17
2018-02-11T01:40:27.105Z,2.16
2018-02-11T01:41:27.795Z,2.13
2018-02-11T01:42:27.171Z,2.12
2018-02-11T01:43:27.104Z,2.12
2018-02-11T01:44:25.872Z,2.13
2018-02-11T01:45:26.971Z,2.12
2018-02-11T01:46:25.896Z,2.11
2018-02-11T01:47:25.866Z,2.06
2018-02-11T01:48:27.150Z,2.06
2018-02-11T01:49:27.156Z,2.06
2018-02-11T01:50:27.200Z,2.06
2018-02-11T01:51:25.886Z,2.05
2018-02-11T01:52:27.112Z,2.05
2018-02-11T01:53:25.780Z,2
2018-02-11T01:54:26.932Z,2.01
2018-02-11T01:55:26.960Z,2.06
2018-02-11T01:56:25.906Z,2.07
2018-02-11T01:57:27.006Z,2.06
2018-02-11T01:58:27.583Z,2.05
2018-02-11T01:59:27.079Z,2.04
2018-02-11T02:00:27.089Z,2.02
2018-02-11T02:01:25.860Z,2.06
2018-02-11T02:02:25.841Z,2.01
2018-02-11T02:03:25.892Z,2.01
2018-02-11T02:04:27.164Z,2
2018-02-11T02:05:27.080Z,1.99
2018-02-11T02:06:25.849Z,2
2018-02-11T02:07:27.498Z,2
2018-02-11T02:08:27.194Z,1.99
2018-02-11T02:09:27.247Z,2.02
2018-02-11T02:10:25.878Z,2
2018-02-11T02:11:27.196Z,1.97
2018-02-11T02:12:25.931Z,2
2018-02-11T02:13:27.262Z,1.96
2018-02-11T02:14:27.160Z,2
2018-02-11T02:15:27.164Z,1.94
2018-02-11T02:16:27.131Z,1.99
2018-02-11T02:17:27.051Z,2
2018-02-11T02:18:27.809Z,1.96
2018-02-11T02:19:27.159Z,1.94
2018-02-11T02:20:27.495Z,1.96
2018-02-11T02:21:25.896Z,1.95
2018-02-11T02:22:27.180Z,2
2018-02-11T02:23:27.222Z,2
2018-02-11T02:24:27.066Z,1.96
2018-02-11T02:25:25.910Z,1.95
2018-02-11T02:26:27.095Z,1.95
2018-02-11T02:27:27.076Z,2
2018-02-11T02:28:27.273Z,1.96
2018-02-11T02:29:27.250Z,1.95
2018-02-11T02:30:27.185Z,1.95
2018-02-11T02:31:26.942Z,1.99
2018-02-11T02:32:25.913Z,1.97
2018-02-11T02:33:27.251Z,2
2018-02-11T02:34:27.149Z,1.95
2018-02-11T02:35:27.180Z,1.99
2018-02-11T02:36:27.554Z,1.97
2018-02-11T02:37:26.805Z,1.99
2018-02-11T02:38:27.240Z,1.98
2018-02-11T02:41:44.889Z,1.99
2018-02-11T02:42:25.679Z,1.94
2018-02-11T02:43:25.901Z,1.96
2018-02-11T02:44:25.829Z,2
2018-02-11T02:45:25.858Z,1.99
2018-02-11T02:46:25.659Z,2
2018-02-11T02:47:25.634Z,1.97
2018-02-11T02:48:25.660Z,2
2018-02-11T02:49:25.833Z,2.02
2018-02-11T02:50:25.781Z,2.01
2018-02-11T02:51:25.939Z,2
2018-02-11T02:52:25.825Z,2.05
2018-02-11T02:53:25.836Z,2.01
2018-02-11T02:54:25.936Z,2.02
2018-02-11T02:55:25.761Z,2.04
2018-02-11T02:56:25.755Z,2.05
2018-02-11T02:57:25.899Z,2.06
2018-02-11T02:58:25.949Z,2.06
2018-02-11T02:59:25.711Z,2.08
2018-02-11T03:00:25.726Z,2.06
2018-02-11T03:01:25.881Z,2.06
2018-02-11T03:02:25.856Z,2.05
2018-02-11T03:03:25.864Z,2.06
2018-02-11T03:04:25.893Z,2.06
2018-02-11T03:05:25.678Z,2.06
2018-02-11T03:06:25.726Z,2.06
2018-02-11T03:07:25.593Z,2.07
2018-02-11T03:08:25.759Z,2.06
2018-02-11T03:09:25.816Z,2.06
2018-02-11T03:10:25.633Z,2.06
2018-02-11T03:11:27.380Z,2.06
2018-02-11T03:12:25.899Z,2.06
2018-02-11T03:13:25.689Z,2.06
2018-02-11T03:14:25.837Z,2.06
2018-02-11T03:15:25.881Z,2.06
2018-02-11T03:16:25.705Z,2.06
2018-02-11T03:17:27.019Z,2.06
2018-02-11T03:18:25.819Z,2.06
2018-02-11T03:19:26.949Z,2.06
2018-02-11T03:20:25.929Z,2.06
2018-02-11T03:21:25.926Z,2.07
2018-02-11T03:22:25.895Z,2.06
2018-02-11T03:23:27.067Z,2.04
2018-02-11T03:24:25.816Z,2.06
2018-02-11T03:25:27.152Z,2.05
2018-02-11T03:26:25.949Z,2.02
2018-02-11T03:27:25.875Z,2.04
2018-02-11T03:28:25.874Z,2.05
2018-02-11T03:29:25.925Z,2.04
2018-02-11T03:30:25.970Z,2.01
2018-02-11T03:31:25.783Z,2.04
2018-02-11T03:32:25.762Z,2.02
2018-02-11T03:33:25.907Z,2.04
2018-02-11T03:34:27.142Z,2.01
2018-02-11T03:35:25.809Z,2.02
2018-02-11T03:36:25.885Z,2.02
2018-02-11T03:37:25.959Z,2.06
2018-02-11T03:38:25.959Z,2.02
2018-02-11T03:39:27.065Z,2.02
2018-02-11T03:40:25.912Z,2.02
2018-02-11T03:41:25.817Z,2
2018-02-11T03:42:25.955Z,2
2018-02-11T03:43:25.937Z,2.03
2018-02-11T03:44:25.868Z,2
2018-02-11T03:45:25.852Z,1.99
2018-02-11T03:46:25.755Z,2
2018-02-11T03:47:25.880Z,2
2018-02-11T03:48:25.784Z,2.01
2018-02-11T03:49:27.443Z,2
2018-02-11T03:50:25.773Z,2
2018-02-11T03:51:25.802Z,2
2018-02-11T03:52:27.061Z,2
2018-02-11T03:53:26.958Z,2
2018-02-11T03:54:27.167Z,2
2018-02-11T03:55:25.891Z,2
2018-02-11T03:56:25.953Z,1.98
2018-02-11T03:57:25.859Z,2
2018-02-11T03:58:25.930Z,1.98
2018-02-11T03:59:27.136Z,1.99
2018-02-11T04:00:27.061Z,1.99
2018-02-11T04:01:25.988Z,1.99
2018-02-11T04:02:25.907Z,1.96
2018-02-11T04:03:25.833Z,1.99
2018-02-11T04:04:25.933Z,1.98
2018-02-11T04:05:25.897Z,2
2018-02-11T04:06:25.898Z,1.98
2018-02-11T04:07:27.162Z,1.99
2018-02-11T04:08:25.776Z,1.97
2018-02-11T04:09:25.908Z,2.01
2018-02-11T04:10:25.896Z,2
2018-02-11T04:11:25.904Z,2.01
2018-02-11T04:12:27.556Z,2
2018-02-11T04:13:25.925Z,2
2018-02-11T04:14:25.771Z,2.04
2018-02-11T04:15:27.884Z,2.01
2018-02-11T04:16:27.514Z,2.04
2018-02-11T04:17:27.786Z,2.04
2018-02-11T04:20:27.932Z,2.05
2018-02-11T04:21:27.776Z,2.02
2018-02-11T04:22:27.715Z,2.01
2018-02-11T04:23:27.837Z,2.01
2018-02-11T04:24:27.821Z,2.04
2018-02-11T04:25:27.943Z,2.02
2018-02-11T04:26:27.691Z,2.05
2018-02-11T04:27:27.816Z,2.04
2018-02-11T04:28:27.694Z,2.05
2018-02-11T04:29:27.717Z,2.06
2018-02-11T04:30:27.803Z,2.06
2018-02-11T04:31:27.860Z,2.06
2018-02-11T04:32:27.729Z,2.06
2018-02-11T04:33:27.668Z,2.05
2018-02-11T04:34:27.918Z,2.06
2018-02-11T04:35:27.752Z,2.11
2018-02-11T04:36:27.812Z,2.08
2018-02-11T04:37:27.785Z,2.05
2018-02-11T04:38:27.643Z,2.08
2018-02-11T04:39:27.763Z,2.09
2018-02-11T04:40:27.718Z,2.08
2018-02-11T04:41:27.626Z,2.11
2018-02-11T04:42:27.684Z,2.08
2018-02-11T04:43:27.545Z,2.08
2018-02-11T04:44:27.772Z,2.12
2018-02-11T04:45:27.253Z,2.1
2018-02-11T04:46:27.775Z,2.13
2018-02-11T04:47:27.820Z,2.12
2018-02-11T04:48:27.705Z,2.13
2018-02-11T04:49:27.599Z,2.15
2018-02-11T04:50:27.200Z,2.17
2018-02-11T04:51:27.907Z,2.15
2018-02-11T04:52:27.830Z,2.14
2018-02-11T04:53:27.691Z,2.18
2018-02-11T04:54:27.678Z,2.16
2018-02-11T04:55:27.626Z,2.14
2018-02-11T04:56:27.866Z,2.14
2018-02-11T04:57:27.835Z,2.17
2018-02-11T04:58:27.760Z,2.14
2018-02-11T04:59:27.594Z,2.14
2018-02-11T05:00:27.596Z,2.17
2018-02-11T05:01:27.712Z,2.14
2018-02-11T05:02:27.272Z,2.15
2018-02-11T05:03:27.889Z,2.15
2018-02-11T05:04:27.662Z,2.17
2018-02-11T05:05:27.653Z,2.16
2018-02-11T05:06:27.785Z,2.16
2018-02-11T05:07:27.754Z,2.17
2018-02-11T05:08:27.855Z,2.17
2018-02-11T05:09:27.457Z,2.13
2018-02-11T05:10:27.875Z,2.17
2018-02-11T05:11:27.864Z,2.17
2018-02-11T05:12:27.676Z,2.17
2018-02-11T05:13:27.787Z,2.15
2018-02-11T05:14:27.930Z,2.14
2018-02-11T05:15:25.673Z,2.18
2018-02-11T05:16:25.765Z,2.18
2018-02-11T05:17:25.668Z,2.18
2018-02-11T05:18:25.700Z,2.17
2018-02-11T05:19:25.786Z,2.18
2018-02-11T05:20:25.860Z,2.18
2018-02-11T05:21:25.776Z,2.15
2018-02-11T05:22:25.881Z,2.2
2018-02-11T05:23:25.774Z,2.2
2018-02-11T05:24:25.677Z,2.23
2018-02-11T05:25:25.952Z,2.2
2018-02-11T05:26:25.915Z,2.24
2018-02-11T05:27:25.906Z,2.23
2018-02-11T05:28:27.314Z,2.24
2018-02-11T05:29:25.906Z,2.23
2018-02-11T05:30:25.939Z,2.24
2018-02-11T05:31:25.838Z,2.27
2018-02-11T05:32:25.826Z,2.26
2018-02-11T05:33:25.702Z,2.24
2018-02-11T05:34:25.677Z,2.25
2018-02-11T05:35:25.723Z,2.29
2018-02-11T05:36:25.764Z,2.26
2018-02-11T05:39:37.450Z,2.26
2018-02-11T05:40:25.850Z,2.27
2018-02-11T05:41:25.913Z,2.26
2018-02-11T05:42:25.911Z,2.3
2018-02-11T05:43:25.758Z,2.28
2018-02-11T05:44:25.833Z,2.32
2018-02-11T05:45:25.718Z,2.31
2018-02-11T05:46:26.400Z,2.3
2018-02-11T05:47:26.557Z,2.32
2018-02-11T05:48:26.452Z,2.35
2018-02-11T05:49:26.545Z,2.32
2018-02-11T05:50:26.577Z,2.32
2018-02-11T05:51:26.485Z,2.3
2018-02-11T05:52:26.706Z,2.31
2018-02-11T05:53:26.663Z,2.32
2018-02-11T05:54:26.632Z,2.32
2018-02-11T05:55:26.575Z,2.31
2018-02-11T05:56:26.402Z,2.31
2018-02-11T05:57:26.526Z,2.32
2018-02-11T05:58:26.497Z,2.31
2018-02-11T05:59:26.556Z,2.3
2018-02-11T06:00:26.602Z,2.3
2018-02-11T06:01:26.513Z,2.31
2018-02-11T06:02:26.503Z,2.28
2018-02-11T06:03:26.723Z,2.32
2018-02-11T06:04:26.562Z,2.31
2018-02-11T06:05:26.725Z,2.35
2018-02-11T06:06:26.543Z,2.32
2018-02-11T06:07:26.597Z,2.32
2018-02-11T06:08:26.467Z,2.32
2018-02-11T06:09:26.657Z,2.34
2018-02-11T06:10:26.487Z,2.36
2018-02-11T06:11:26.458Z,2.34
2018-02-11T06:12:26.570Z,2.36
2018-02-11T06:13:26.561Z,2.34
2018-02-11T06:14:26.570Z,2.41
2018-02-11T06:15:26.523Z,2.35
2018-02-11T06:16:26.290Z,2.41
2018-02-11T06:17:26.420Z,2.43
2018-02-11T06:18:26.322Z,2.44
2018-02-11T06:19:26.513Z,2.4
2018-02-11T06:20:26.572Z,2.42
2018-02-11T06:21:26.349Z,2.41
2018-02-11T06:22:26.392Z,2.42
2018-02-11T06:23:26.444Z,2.41
2018-02-11T06:24:26.304Z,2.42
2018-02-11T06:25:26.458Z,2.43
2018-02-11T06:26:26.369Z,2.43
2018-02-11T06:27:26.323Z,2.41
2018-02-11T06:28:26.267Z,2.39
2018-02-11T06:29:26.449Z,2.42
2018-02-11T06:30:26.344Z,2.41
2018-02-11T06:31:26.525Z,2.42
2018-02-11T06:32:26.322Z,2.43
2018-02-11T06:33:26.508Z,2.43
2018-02-11T06:34:26.499Z,2.43
2018-02-11T06:35:26.368Z,2.44
2018-02-11T06:36:26.259Z,2.44
2018-02-11T06:37:26.263Z,2.44
2018-02-11T06:38:26.284Z,2.47
2018-02-11T06:39:26.317Z,2.46
2018-02-11T06:40:26.418Z,2.45
2018-02-11T06:41:26.384Z,2.49
2018-02-11T06:42:26.300Z,2.48
2018-02-11T06:43:26.474Z,2.48
2018-02-11T06:44:26.555Z,2.49
2018-02-11T06:45:26.689Z,2.46
2018-02-11T06:46:26.753Z,2.45
2018-02-11T06:47:26.705Z,2.47
2018-02-11T06:48:26.607Z,2.45
2018-02-11T06:49:26.674Z,2.45
2018-02-11T06:50:26.506Z,2.48
2018-02-11T06:51:26.526Z,2.43
2018-02-11T06:52:26.646Z,2.43
2018-02-11T06:53:26.700Z,2.47
2018-02-11T06:54:26.706Z,2.43
2018-02-11T06:55:26.579Z,2.43
2018-02-11T06:56:27.231Z,2.44
2018-02-11T06:57:26.690Z,2.43
2018-02-11T06:58:26.558Z,2.45
2018-02-11T06:59:26.651Z,2.45
2018-02-11T07:00:26.462Z,2.46
2018-02-11T07:01:26.754Z,2.49
2018-02-11T07:02:26.658Z,2.46
2018-02-11T07:03:26.750Z,2.46
2018-02-11T07:04:26.641Z,2.51
2018-02-11T07:05:26.545Z,2.49
2018-02-11T07:06:26.854Z,2.49
2018-02-11T07:07:26.669Z,2.49
2018-02-11T07:08:26.520Z,2.49
2018-02-11T07:09:26.537Z,2.5
2018-02-11T07:10:26.516Z,2.53
2018-02-11T07:11:26.724Z,2.51
2018-02-11T07:12:26.644Z,2.51
2018-02-11T07:13:26.817Z,2.52
2018-02-11T07:14:26.582Z,2.55
2018-02-11T07:15:26.657Z,2.52
2018-02-11T07:16:26.563Z,2.55
2018-02-11T07:17:26.478Z,2.56
2018-02-11T07:18:26.611Z,2.6
2018-02-11T07:19:26.400Z,2.57
2018-02-11T07:20:26.496Z,2.6
2018-02-11T07:21:26.433Z,2.61
2018-02-11T07:22:26.507Z,2.59
2018-02-11T07:23:26.345Z,2.62
2018-02-11T07:24:26.467Z,2.59
2018-02-11T07:25:26.326Z,2.62
2018-02-11T07:26:26.700Z,2.59
2018-02-11T07:27:26.589Z,2.62
2018-02-11T07:28:26.518Z,2.61
2018-02-11T07:29:26.510Z,2.63
2018-02-11T07:30:26.716Z,2.65
2018-02-11T07:31:26.623Z,2.65
2018-02-11T07:32:26.581Z,2.64
2018-02-11T07:33:26.394Z,2.68
2018-02-11T07:34:26.659Z,2.68
2018-02-11T07:35:26.704Z,2.67
2018-02-11T07:36:26.382Z,2.67
2018-02-11T07:37:26.556Z,2.68
2018-02-11T07:38:26.444Z,2.66
2018-02-11T07:39:26.322Z,2.67
2018-02-11T07:40:26.371Z,2.69
2018-02-11T07:41:26.604Z,2.68
2018-02-11T07:42:26.811Z,2.68
2018-02-11T07:43:26.513Z,2.69
2018-02-11T07:44:26.318Z,2.73
2018-02-11T07:45:26.520Z,2.69
2018-02-11T07:46:26.637Z,2.69
2018-02-11T07:47:26.789Z,2.69
2018-02-11T07:48:26.719Z,2.72
2018-02-11T07:49:26.621Z,2.72
2018-02-11T07:50:26.411Z,2.71
2018-02-11T07:51:26.677Z,2.72
2018-02-11T07:52:26.580Z,2.74
2018-02-11T07:53:26.615Z,2.74
2018-02-11T07:54:26.609Z,2.74
2018-02-11T07:55:26.654Z,2.73
2018-02-11T07:56:26.938Z,2.74
2018-02-11T07:57:26.751Z,2.74
2018-02-11T07:58:26.662Z,2.74
2018-02-11T07:59:26.653Z,2.74
2018-02-11T08:00:26.801Z,2.75
2018-02-11T08:01:26.634Z,2.73
2018-02-11T08:02:26.630Z,2.74
2018-02-11T08:03:26.651Z,2.72
2018-02-11T08:04:26.718Z,2.74
2018-02-11T08:05:26.662Z,2.7
2018-02-11T08:06:26.867Z,2.74
2018-02-11T08:07:26.513Z,2.76
2018-02-11T08:08:26.397Z,2.76
2018-02-11T08:09:26.732Z,2.76
2018-02-11T08:10:26.677Z,2.76
2018-02-11T08:11:26.786Z,2.79
2018-02-11T08:12:26.497Z,2.8
2018-02-11T08:13:26.787Z,2.77
2018-02-11T08:14:26.666Z,2.79
2018-02-11T08:15:26.662Z,2.8
2018-02-11T08:16:26.555Z,2.8
2018-02-11T08:17:26.892Z,2.82
2018-02-11T08:18:26.933Z,2.82
2018-02-11T08:19:26.995Z,2.86
2018-02-11T08:20:26.719Z,2.83
2018-02-11T08:21:26.831Z,2.88
2018-02-11T08:22:27.016Z,2.88
2018-02-11T08:23:26.869Z,2.93
2018-02-11T08:24:26.926Z,2.89
2018-02-11T08:25:26.727Z,2.94
2018-02-11T08:26:26.896Z,2.94
2018-02-11T08:27:26.859Z,2.93
2018-02-11T08:28:26.892Z,2.94
2018-02-11T08:29:26.662Z,2.94
2018-02-11T08:30:27.034Z,2.94
2018-02-11T08:31:26.708Z,2.94
2018-02-11T08:32:26.804Z,2.95
2018-02-11T08:33:26.826Z,2.94
2018-02-11T08:34:26.838Z,2.96
2018-02-11T08:35:27.078Z,2.95
2018-02-11T08:36:26.796Z,2.98
2018-02-11T08:37:26.773Z,2.99
2018-02-11T08:38:27.076Z,2.99
2018-02-11T08:39:26.781Z,2.98
2018-02-11T08:40:26.640Z,2.99
2018-02-11T08:41:26.579Z,2.99
2018-02-11T08:42:26.799Z,2.99
2018-02-11T08:43:27.111Z,2.99
2018-02-11T08:44:26.653Z,2.97
2018-02-11T08:45:26.855Z,2.94
2018-02-11T08:46:26.731Z,2.94
2018-02-11T08:47:26.923Z,2.92
2018-02-11T08:48:25.790Z,2.89
2018-02-11T08:49:25.779Z,2.87
2018-02-11T08:50:25.867Z,2.88
2018-02-11T08:51:25.824Z,2.86
2018-02-11T08:52:25.986Z,2.86
2018-02-11T08:53:25.607Z,2.85
2018-02-11T08:54:25.842Z,2.86
2018-02-11T08:55:25.733Z,2.81
2018-02-11T08:56:25.775Z,2.82
2018-02-11T08:57:25.686Z,2.82
2018-02-11T08:58:25.733Z,2.82
2018-02-11T08:59:25.839Z,2.86
2018-02-11T09:00:25.974Z,2.82
2018-02-11T09:01:25.638Z,2.86
2018-02-11T09:02:25.852Z,2.86
2018-02-11T09:03:25.758Z,2.87
2018-02-11T09:04:25.803Z,2.86
2018-02-11T09:05:25.725Z,2.85
2018-02-11T09:06:26.157Z,2.86
2018-02-11T09:07:27.010Z,2.83
2018-02-11T09:08:25.943Z,2.87
2018-02-11T09:09:26.051Z,2.82
2018-02-11T09:10:25.833Z,2.82
2018-02-11T09:11:26.492Z,2.8
2018-02-11T09:12:26.472Z,2.8
2018-02-11T09:13:25.990Z,2.8
2018-02-11T09:14:26.175Z,2.8
2018-02-11T09:15:26.191Z,2.8
2018-02-11T09:16:25.752Z,2.77
2018-02-11T09:17:26.077Z,2.76
2018-02-11T09:18:25.769Z,2.79
2018-02-11T09:19:26.630Z,2.75
2018-02-11T09:20:26.703Z,2.76
2018-02-11T09:21:26.617Z,2.79
2018-02-11T09:22:26.940Z,2.75
2018-02-11T09:23:26.711Z,2.78
2018-02-11T09:24:26.616Z,2.77
2018-02-11T09:25:27.623Z,2.76
2018-02-11T09:26:26.976Z,2.75
2018-02-11T09:27:26.610Z,2.74
2018-02-11T09:28:26.504Z,2.74
2018-02-11T09:29:26.694Z,2.75
2018-02-11T09:30:27.388Z,2.75
2018-02-11T09:31:26.694Z,2.76
2018-02-11T09:32:26.619Z,2.79
2018-02-11T09:33:26.999Z,2.77
2018-02-11T09:34:26.430Z,2.77
2018-02-11T09:35:26.696Z,2.76
2018-02-11T09:36:27.378Z,2.77
2018-02-11T09:37:26.818Z,2.77
2018-02-11T09:38:26.630Z,2.8
2018-02-11T09:39:26.729Z,2.77
2018-02-11T09:40:26.611Z,2.81
2018-02-11T09:41:26.710Z,2.8
2018-02-11T09:42:26.852Z,2.8
2018-02-11T09:43:26.810Z,2.82
2018-02-11T09:44:26.614Z,2.81
2018-02-11T09:45:26.891Z,2.8
2018-02-11T09:46:26.653Z,2.82
2018-02-11T09:47:26.743Z,2.81
2018-02-11T09:48:27.968Z,2.82
2018-02-11T09:49:26.401Z,2.83
2018-02-11T09:50:26.991Z,2.87
2018-02-11T09:51:27.441Z,2.86
2018-02-11T09:52:27.834Z,2.88
2018-02-11T09:53:28.172Z,2.88
2018-02-11T09:54:27.217Z,2.87
2018-02-11T09:55:26.548Z,2.88
2018-02-11T09:56:27.021Z,2.88
2018-02-11T09:57:27.208Z,2.89
2018-02-11T09:58:26.517Z,2.93
2018-02-11T09:59:26.983Z,2.9
2018-02-11T10:00:27.346Z,2.9
2018-02-11T10:01:26.531Z,2.89
2018-02-11T10:02:27.701Z,2.94
2018-02-11T10:03:27.158Z,2.93
2018-02-11T10:04:26.331Z,2.94
2018-02-11T10:05:26.444Z,2.95
2018-02-11T10:06:28.135Z,2.95
2018-02-11T10:07:27.174Z,2.95
2018-02-11T10:08:27.014Z,2.98
2018-02-11T10:09:27.349Z,2.98
2018-02-11T10:10:27.140Z,2.98
2018-02-11T10:11:26.532Z,3
2018-02-11T10:12:28.200Z,3
2018-02-11T10:13:28.159Z,3
2018-02-11T10:14:27.306Z,2.96
2018-02-11T10:15:27.583Z,3
2018-02-11T10:16:26.549Z,3
2018-02-11T10:17:27.614Z,3
2018-02-11T10:18:27.158Z,3
2018-02-11T10:19:26.916Z,3.01
2018-02-11T10:20:26.992Z,3
2018-02-11T10:21:27.122Z,3
2018-02-11T10:22:26.960Z,3
2018-02-11T10:23:26.553Z,3
2018-02-11T10:24:27.450Z,3
2018-02-11T10:25:27.106Z,2.99
2018-02-11T10:26:27.048Z,2.98
2018-02-11T10:27:27.262Z,2.96
2018-02-11T10:28:26.788Z,3
2018-02-11T10:29:26.992Z,2.96
2018-02-11T10:30:27.913Z,3
2018-02-11T10:31:27.312Z,3
2018-02-11T10:32:26.852Z,3
2018-02-11T10:33:27.411Z,3.01
2018-02-11T10:34:27.054Z,3.02
2018-02-11T10:35:26.847Z,3.02
2018-02-11T10:36:27.477Z,3.02
2018-02-11T10:37:26.988Z,3.04
2018-02-11T10:38:27.026Z,3
2018-02-11T10:39:26.958Z,3.05
2018-02-11T10:40:26.824Z,3.05
2018-02-11T10:41:26.971Z,3.06
2018-02-11T10:42:27.488Z,3.06
2018-02-11T10:43:27.169Z,3.11
2018-02-11T10:44:26.943Z,3.12
2018-02-11T10:45:27.120Z,3.14
2018-02-11T10:46:26.846Z,3.12
2018-02-11T10:47:27.121Z,3.16
2018-02-11T10:48:27.857Z,3.17
2018-02-11T10:49:27.191Z,3.14
2018-02-11T10:50:27.215Z,3.19
2018-02-11T10:51:27.995Z,3.2
2018-02-11T10:52:27.551Z,3.23
2018-02-11T10:53:27.215Z,3.21
2018-02-11T10:54:27.531Z,3.25
2018-02-11T10:55:27.373Z,3.26
2018-02-11T10:56:27.473Z,3.26
2018-02-11T10:57:29.003Z,3.31
2018-02-11T10:58:27.400Z,3.31
2018-02-11T10:59:27.431Z,3.31
2018-02-11T11:00:27.475Z,3.31
2018-02-11T11:01:27.322Z,3.31
2018-02-11T11:02:27.458Z,3.32
2018-02-11T11:03:27.367Z,3.32
2018-02-11T11:04:27.494Z,3.33
2018-02-11T11:05:27.458Z,3.35
2018-02-11T11:06:27.284Z,3.32
2018-02-11T11:07:27.356Z,3.37
2018-02-11T11:08:27.088Z,3.35
2018-02-11T11:09:27.664Z,3.36
2018-02-11T11:10:27.521Z,3.37
2018-02-11T11:11:27.234Z,3.37
2018-02-11T11:12:27.632Z,3.37
2018-02-11T11:13:27.181Z,3.37
2018-02-11T11:15:27.451Z,3.38
2018-02-11T11:16:27.189Z,3.43
2018-02-11T11:17:27.745Z,3.43
2018-02-11T11:18:28.342Z,3.43
2018-02-11T11:19:27.106Z,3.43
2018-02-11T11:20:27.785Z,3.44
2018-02-11T11:21:26.836Z,3.43
2018-02-11T11:22:26.810Z,3.43
2018-02-11T11:23:26.910Z,3.44
2018-02-11T11:24:26.855Z,3.45
2018-02-11T11:25:26.697Z,3.45
2018-02-11T11:26:26.921Z,3.48
2018-02-11T11:27:27.038Z,3.49
2018-02-11T11:28:26.729Z,3.5
2018-02-11T11:29:27.278Z,3.51
2018-02-11T11:30:27.447Z,3.52
2018-02-11T11:31:26.753Z,3.56
2018-02-11T11:32:26.598Z,3.59
2018-02-11T11:33:28.212Z,3.63
2018-02-11T11:34:26.991Z,3.64
2018-02-11T11:35:27.293Z,3.68
2018-02-11T11:36:27.121Z,3.71
2018-02-11T11:37:27.139Z,3.7
2018-02-11T11:38:26.764Z,3.74
2018-02-11T11:39:26.950Z,3.74
2018-02-11T11:40:26.730Z,3.74
2018-02-11T11:41:26.691Z,3.76
2018-02-11T11:42:26.938Z,3.8
2018-02-11T11:43:26.670Z,3.8
2018-02-11T11:44:26.746Z,3.86
2018-02-11T11:45:27.237Z,3.87
2018-02-11T11:46:26.846Z,3.88
2018-02-11T11:47:26.608Z,3.88
2018-02-11T11:48:28.023Z,3.86
2018-02-11T11:49:26.639Z,3.89
2018-02-11T11:50:26.722Z,3.87
2018-02-11T11:51:26.951Z,3.9
2018-02-11T11:52:27.231Z,3.88
2018-02-11T11:53:26.737Z,3.9
2018-02-11T11:54:27.779Z,3.92
2018-02-11T11:55:27.359Z,3.92
2018-02-11T11:56:27.020Z,3.92
2018-02-11T11:57:27.270Z,3.92
2018-02-11T11:58:26.885Z,3.95
2018-02-11T11:59:28.007Z,3.96
2018-02-11T12:00:27.260Z,3.98
2018-02-11T12:01:27.269Z,3.99
2018-02-11T12:02:27.526Z,3.95
2018-02-11T12:03:27.805Z,3.98
2018-02-11T12:04:27.284Z,4
2018-02-11T12:05:27.554Z,4
2018-02-11T12:06:27.752Z,4.03
2018-02-11T12:07:27.350Z,4.04
2018-02-11T12:08:27.395Z,4.06
2018-02-11T12:09:26.968Z,4.06
2018-02-11T12:10:26.914Z,4.1
2018-02-11T12:11:28.274Z,4.11
2018-02-11T12:12:27.456Z,4.12
2018-02-11T12:13:27.268Z,4.11
2018-02-11T12:14:27.783Z,4.12
2018-02-11T12:15:27.010Z,4.13
2018-02-11T12:16:27.749Z,4.18
2018-02-11T12:17:27.616Z,4.18
2018-02-11T12:18:26.988Z,4.22
2018-02-11T12:19:27.244Z,4.23
2018-02-11T12:20:27.300Z,4.24
2018-02-11T12:21:27.622Z,4.25
2018-02-11T12:22:26.932Z,4.3
2018-02-11T12:23:26.529Z,4.27
2018-02-11T12:24:26.712Z,4.25
2018-02-11T12:25:26.792Z,4.29
2018-02-11T12:26:27.075Z,4.3
2018-02-11T12:27:27.161Z,4.25
2018-02-11T12:28:27.039Z,4.3
2018-02-11T12:29:26.650Z,4.3
2018-02-11T12:30:26.792Z,4.32
2018-02-11T12:31:26.951Z,4.32
2018-02-11T12:32:27.099Z,4.36
2018-02-11T12:33:27.008Z,4.41
2018-02-11T12:34:26.952Z,4.38
2018-02-11T12:35:26.666Z,4.41
2018-02-11T12:36:27.034Z,4.42
2018-02-11T12:37:26.744Z,4.44
2018-02-11T12:38:26.621Z,4.49
2018-02-11T12:39:26.563Z,4.49
2018-02-11T12:40:27.034Z,4.56
2018-02-11T12:41:27.062Z,4.62
2018-02-11T12:42:26.960Z,4.68
2018-02-11T12:43:26.939Z,4.8
2018-02-11T12:44:26.779Z,4.82
2018-02-11T12:45:27.259Z,4.87
2018-02-11T12:46:27.383Z,4.91
2018-02-11T12:47:26.686Z,4.92
2018-02-11T12:48:26.895Z,4.96
2018-02-11T12:49:26.743Z,4.97
2018-02-11T12:50:26.673Z,5.01
2018-02-11T12:51:26.722Z,5.03
2018-02-11T12:52:26.743Z,5.05
2018-02-11T12:53:27.530Z,5.04
2018-02-11T12:54:27.091Z,5.01
2018-02-11T12:55:26.666Z,5.02
2018-02-11T12:56:26.626Z,4.98
2018-02-11T12:57:26.827Z,4.94
2018-02-11T12:58:26.845Z,4.97
2018-02-11T12:59:26.833Z,4.98
2018-02-11T13:00:26.782Z,4.99
2018-02-11T13:01:26.881Z,5.03
2018-02-11T13:02:26.836Z,5
2018-02-11T13:03:26.688Z,5.02
2018-02-11T13:04:26.743Z,5.03
2018-02-11T13:05:26.755Z,5.04
2018-02-11T13:06:27.390Z,5.06
2018-02-11T13:07:26.754Z,5.13
2018-02-11T13:08:26.804Z,5.17
2018-02-11T13:09:26.723Z,5.18
2018-02-11T13:10:26.762Z,5.22
2018-02-11T13:11:27.210Z,5.23
2018-02-11T13:12:26.592Z,5.28
2018-02-11T13:13:26.679Z,5.31
2018-02-11T13:14:26.761Z,5.34
2018-02-11T13:15:27.658Z,5.32
2018-02-11T13:16:27.436Z,5.35
2018-02-11T13:17:26.707Z,5.35
2018-02-11T13:18:26.878Z,5.34
2018-02-11T13:19:26.754Z,5.33
2018-02-11T13:20:26.757Z,5.28
2018-02-11T13:21:26.951Z,5.29
2018-02-11T13:22:26.557Z,5.27
2018-02-11T13:23:26.815Z,5.27
2018-02-11T13:24:26.776Z,5.29
2018-02-11T13:25:26.590Z,5.28
2018-02-11T13:26:27.013Z,5.31
2018-02-11T13:27:27.155Z,5.31
2018-02-11T13:28:26.859Z,5.28
2018-02-11T13:29:27.029Z,5.23
2018-02-11T13:30:27.377Z,5.27
2018-02-11T13:31:26.930Z,5.24
2018-02-11T13:32:26.730Z,5.24
2018-02-11T13:33:26.824Z,5.22